Time;durP1;ratioP1;P1;durP2;ratioP2;P2;SDS_P1;SDS_P2;PMS_P1;PMS_P2;Temp;Humidity;BMP_temperature;BMP_pressure;BME280_temperature;BME280_humidity;BME280_pressure;Samples;Min_cycle;Max_cycle;Signal;HPM_P1;HPM_P2
2023/10/04 00:00:45;;;;;;;4.13;0.80;;;12.40;99.90;;;;;;5038688;28;20025;-70
2023/10/04 00:03:10;;;;;;;4.00;0.73;;;12.40;99.90;;;;;;5038729;28;20021;-69
2023/10/04 00:05:36;;;;;;;3.35;0.90;;;12.30;99.90;;;;;;5038594;28;20060;-70
2023/10/04 00:08:02;;;;;;;3.00;0.80;;;12.30;99.90;;;;;;5038549;28;20021;-70
2023/10/04 00:10:28;;;;;;;3.15;0.90;;;12.30;99.90;;;;;;5037507;28;20021;-70
2023/10/04 00:12:54;;;;;;;6.63;0.95;;;12.30;99.90;;;;;;5038661;28;20018;-69
2023/10/04 00:15:22;;;;;;;4.00;0.70;;;12.40;99.90;;;;;;5038355;28;20382;-70
2023/10/04 00:17:48;;;;;;;3.70;0.80;;;12.30;99.90;;;;;;5038523;28;20041;-70
2023/10/04 00:20:17;;;;;;;4.57;0.77;;;12.20;99.90;;;;;;5037153;28;20026;-70
2023/10/04 00:22:43;;;;;;;3.17;0.75;;;12.20;99.90;;;;;;5037940;28;20038;-70
2023/10/04 00:25:20;;;;;;;3.85;0.65;;;12.20;99.90;;;;;;5032052;28;20486;-70
2023/10/04 00:27:46;;;;;;;3.97;0.82;;;12.10;99.90;;;;;;5038088;28;20060;-70
2023/10/04 00:30:17;;;;;;;1.90;0.77;;;12.10;99.90;;;;;;5037893;28;20100;-70
2023/10/04 00:32:46;;;;;;;4.93;0.80;;;12.10;99.90;;;;;;5037246;28;20108;-70
2023/10/04 00:35:19;;;;;;;2.33;0.77;;;12.10;99.90;;;;;;5038125;28;20034;-70
2023/10/04 00:37:50;;;;;;;2.58;0.70;;;12.00;99.90;;;;;;5038175;28;20033;-70
2023/10/04 00:40:21;;;;;;;3.88;0.77;;;12.00;99.90;;;;;;5037814;28;20025;-70
2023/10/04 00:42:49;;;;;;;4.68;0.80;;;12.00;99.90;;;;;;5036653;28;20080;-69
2023/10/04 00:45:19;;;;;;;5.15;1.00;;;11.90;99.90;;;;;;5037882;28;20036;-70
2023/10/04 00:47:53;;;;;;;3.70;0.65;;;11.90;99.90;;;;;;5037848;28;20029;-69
2023/10/04 00:50:29;;;;;;;3.10;0.70;;;11.80;99.90;;;;;;5025850;28;20021;-69
2023/10/04 00:53:05;;;;;;;4.07;0.73;;;11.80;99.90;;;;;;5037831;28;20025;-69
2023/10/04 00:55:45;;;;;;;4.90;0.90;;;11.80;99.90;;;;;;5039758;28;20029;-69
2023/10/04 00:58:14;;;;;;;3.85;0.90;;;11.80;99.90;;;;;;5037185;28;20166;-69
2023/10/04 01:00:41;;;;;;;3.25;0.90;;;11.80;99.90;;;;;;5037570;28;20112;-69
2023/10/04 01:03:09;;;;;;;4.20;0.90;;;11.80;99.90;;;;;;5037557;28;20017;-69
2023/10/04 01:05:45;;;;;;;2.47;0.73;;;11.80;99.90;;;;;;5037584;28;20179;-69
2023/10/04 01:08:13;;;;;;;3.30;0.77;;;11.80;99.90;;;;;;5037667;28;20010;-69
2023/10/04 01:10:38;;;;;;;2.63;0.73;;;11.70;99.90;;;;;;5036056;28;20076;-69
2023/10/04 01:13:09;;;;;;;3.08;0.82;;;11.70;99.90;;;;;;5036383;28;20017;-69
2023/10/04 01:15:39;;;;;;;4.32;0.68;;;11.60;99.90;;;;;;5035546;28;20033;-69
2023/10/04 01:18:25;;;;;;;4.72;0.80;;;11.60;99.90;;;;;;5037393;28;20055;-69
2023/10/04 01:20:51;;;;;;;4.20;0.70;;;11.50;99.90;;;;;;5037070;28;20101;-69
2023/10/04 01:23:18;;;;;;;3.15;0.68;;;11.60;99.90;;;;;;5037369;28;20025;-69
2023/10/04 01:25:49;;;;;;;3.42;1.00;;;11.50;99.90;;;;;;5037182;28;20018;-69
2023/10/04 01:28:26;;;;;;;3.42;0.75;;;11.50;99.90;;;;;;5037191;28;20022;-69
2023/10/04 01:30:54;;;;;;;3.42;0.82;;;11.50;99.90;;;;;;5037539;28;20024;-69
2023/10/04 01:33:19;;;;;;;3.78;0.95;;;11.40;99.90;;;;;;5037101;28;20493;-69
2023/10/04 01:35:53;;;;;;;4.72;0.93;;;11.40;99.90;;;;;;5037252;28;20017;-69
2023/10/04 01:38:27;;;;;;;4.00;0.80;;;11.40;99.90;;;;;;5037085;28;20470;-69
2023/10/04 01:40:54;;;;;;;2.63;0.80;;;11.40;99.90;;;;;;5037032;28;20057;-69
2023/10/04 01:43:24;;;;;;;3.10;0.88;;;11.40;99.90;;;;;;5036617;28;20466;-69
2023/10/04 01:45:52;;;;;;;3.95;0.80;;;11.30;99.90;;;;;;5037072;28;20471;-69
2023/10/04 01:48:19;;;;;;;2.78;0.73;;;11.30;99.90;;;;;;5035479;28;20030;-69
2023/10/04 01:50:46;;;;;;;3.83;1.13;;;11.30;99.90;;;;;;5037136;28;20025;-69
2023/10/04 01:53:13;;;;;;;3.92;0.80;;;11.30;99.90;;;;;;5036925;28;20029;-69
2023/10/04 01:55:40;;;;;;;5.75;0.85;;;11.20;99.90;;;;;;5039087;28;20026;-70
2023/10/04 01:58:06;;;;;;;2.03;0.77;;;11.20;99.90;;;;;;5035356;28;20524;-69
2023/10/04 02:00:33;;;;;;;5.25;1.10;;;11.20;99.90;;;;;;5035412;28;20036;-69
2023/10/04 02:03:01;;;;;;;4.15;0.80;;;11.10;99.90;;;;;;5036956;28;20026;-70
2023/10/04 02:05:37;;;;;;;3.40;0.80;;;11.20;99.90;;;;;;5035716;28;20045;-69
2023/10/04 02:08:12;;;;;;;3.45;0.95;;;11.20;99.90;;;;;;5035611;28;20030;-69
2023/10/04 02:10:38;;;;;;;3.17;0.88;;;11.20;99.90;;;;;;5036670;28;20022;-69
2023/10/04 02:13:08;;;;;;;2.22;0.73;;;11.20;99.90;;;;;;5037022;28;20027;-69
2023/10/04 02:15:34;;;;;;;3.88;0.70;;;11.20;99.90;;;;;;5035991;28;20044;-70
2023/10/04 02:18:01;;;;;;;3.35;0.90;;;11.10;99.90;;;;;;5036876;28;20026;-69
2023/10/04 02:20:31;;;;;;;4.72;0.93;;;11.10;99.90;;;;;;5036719;28;20021;-69
2023/10/04 02:22:57;;;;;;;4.47;1.00;;;11.00;99.90;;;;;;5036869;28;20022;-69
2023/10/04 02:25:24;;;;;;;3.00;0.88;;;11.00;99.90;;;;;;5036519;28;20514;-69
2023/10/04 02:27:52;;;;;;;2.50;0.80;;;11.00;99.90;;;;;;5036853;28;20022;-69
2023/10/04 02:30:23;;;;;;;1.98;0.73;;;11.00;99.90;;;;;;5034984;28;20479;-69
2023/10/04 02:32:50;;;;;;;3.95;0.70;;;10.90;99.90;;;;;;5037580;28;20026;-69
2023/10/04 02:35:27;;;;;;;3.03;0.70;;;10.90;99.90;;;;;;5039217;28;20179;-69
2023/10/04 02:37:59;;;;;;;4.38;1.00;;;10.90;99.90;;;;;;5040506;28;20025;-69
2023/10/04 02:40:32;;;;;;;2.55;0.65;;;10.90;99.90;;;;;;5040102;28;20017;-69
2023/10/04 02:42:58;;;;;;;2.15;0.82;;;10.90;99.90;;;;;;5034332;28;20026;-70
2023/10/04 02:45:26;;;;;;;2.63;0.70;;;10.90;99.90;;;;;;5040233;28;20021;-70
2023/10/04 02:47:53;;;;;;;3.10;0.80;;;10.80;99.90;;;;;;5040164;28;20029;-70
2023/10/04 02:50:23;;;;;;;2.17;0.85;;;10.70;99.90;;;;;;5040208;28;21058;-69
2023/10/04 02:52:50;;;;;;;2.25;0.90;;;10.70;99.90;;;;;;5040064;28;20036;-69
2023/10/04 02:55:20;;;;;;;2.85;0.70;;;10.70;99.90;;;;;;5041402;28;20490;-69
2023/10/04 02:57:49;;;;;;;2.72;0.80;;;10.60;99.90;;;;;;5039848;28;20077;-68
2023/10/04 03:00:17;;;;;;;3.90;0.90;;;10.70;99.90;;;;;;5039685;28;20017;-69
2023/10/04 03:02:48;;;;;;;2.38;0.75;;;10.70;99.90;;;;;;5039812;28;20026;-69
2023/10/04 03:05:20;;;;;;;3.85;0.98;;;10.60;99.90;;;;;;5039928;28;20029;-70
2023/10/04 03:07:52;;;;;;;4.67;0.80;;;10.60;99.90;;;;;;5039863;28;20119;-70
2023/10/04 03:10:24;;;;;;;2.38;1.00;;;10.60;99.90;;;;;;5039696;28;20025;-70
2023/10/04 03:12:56;;;;;;;1.63;0.70;;;10.60;99.90;;;;;;5038488;28;20033;-70
2023/10/04 03:15:23;;;;;;;2.47;0.70;;;10.60;99.90;;;;;;5039522;28;20018;-70
2023/10/04 03:17:52;;;;;;;1.88;0.70;;;10.50;99.90;;;;;;5039773;28;20505;-70
2023/10/04 03:20:28;;;;;;;1.63;0.68;;;10.50;99.90;;;;;;5039520;28;20101;-70
2023/10/04 03:22:55;;;;;;;1.67;0.73;;;10.50;99.90;;;;;;5036534;28;20060;-70
2023/10/04 03:25:24;;;;;;;3.38;0.65;;;10.50;99.90;;;;;;5033384;28;20014;-69
2023/10/04 03:27:50;;;;;;;2.95;0.80;;;10.50;99.90;;;;;;5038316;28;20045;-69
2023/10/04 03:30:15;;;;;;;3.10;0.98;;;10.50;99.90;;;;;;5038859;28;20022;-69
2023/10/04 03:32:53;;;;;;;4.22;1.00;;;10.40;99.90;;;;;;5039597;28;20478;-69
2023/10/04 03:35:26;;;;;;;3.05;0.80;;;10.40;99.90;;;;;;5039356;28;20055;-69
2023/10/04 03:37:58;;;;;;;3.00;0.90;;;10.40;99.90;;;;;;5038106;28;20033;-69
2023/10/04 03:40:38;;;;;;;1.85;0.80;;;10.40;99.90;;;;;;5038936;28;20478;-69
2023/10/04 03:43:06;;;;;;;1.83;0.73;;;10.40;99.90;;;;;;5034031;28;20109;-70
2023/10/04 03:45:32;;;;;;;2.22;0.70;;;10.30;99.90;;;;;;5038998;28;20091;-70
2023/10/04 03:47:59;;;;;;;1.48;0.60;;;10.30;99.90;;;;;;5037769;28;20025;-70
2023/10/04 03:50:25;;;;;;;1.88;0.70;;;10.30;99.90;;;;;;5039242;28;20057;-70
2023/10/04 03:52:51;;;;;;;4.88;1.05;;;10.40;99.90;;;;;;5037694;28;20053;-71
2023/10/04 03:55:17;;;;;;;2.38;0.90;;;10.30;99.90;;;;;;5040873;28;20056;-70
2023/10/04 03:57:43;;;;;;;4.20;0.90;;;10.30;99.90;;;;;;5038798;28;20037;-70
2023/10/04 04:00:16;;;;;;;2.08;0.68;;;10.30;99.90;;;;;;5038743;28;20076;-70
2023/10/04 04:02:43;;;;;;;2.00;0.70;;;10.30;99.90;;;;;;5038765;28;20060;-70
2023/10/04 04:05:14;;;;;;;2.97;0.77;;;10.30;99.90;;;;;;5039047;28;20466;-69
2023/10/04 04:07:43;;;;;;;2.35;1.00;;;10.30;99.90;;;;;;5038743;28;20033;-70
2023/10/04 04:10:12;;;;;;;2.95;0.88;;;10.20;99.90;;;;;;5038561;28;20041;-69
2023/10/04 04:12:40;;;;;;;2.45;0.90;;;10.20;99.90;;;;;;5037397;28;20394;-70
2023/10/04 04:15:10;;;;;;;2.00;0.60;;;10.20;99.90;;;;;;5038355;28;20025;-71
2023/10/04 04:17:37;;;;;;;3.38;0.90;;;10.20;99.90;;;;;;5037077;28;20402;-71
2023/10/04 04:20:19;;;;;;;1.90;0.68;;;10.20;99.90;;;;;;5038758;28;20440;-71
2023/10/04 04:22:55;;;;;;;2.67;0.85;;;10.20;99.90;;;;;;5038246;28;20393;-71
2023/10/04 04:25:21;;;;;;;3.03;0.70;;;10.20;99.90;;;;;;5033401;28;20450;-70
2023/10/04 04:27:49;;;;;;;1.77;0.70;;;10.30;99.90;;;;;;5038477;28;20026;-70
2023/10/04 04:30:19;;;;;;;2.80;0.82;;;10.30;99.90;;;;;;5037948;28;20049;-70
2023/10/04 04:32:52;;;;;;;2.20;0.75;;;10.20;99.90;;;;;;5038402;28;20022;-69
2023/10/04 04:38:30;;;;;;;1.63;0.70;;;10.20;99.90;;;;;;5038092;28;20026;-69
2023/10/04 04:40:58;;;;;;;2.08;0.70;;;10.20;99.90;;;;;;5037345;28;20029;-69
2023/10/04 04:43:36;;;;;;;2.13;0.77;;;10.30;99.90;;;;;;5037618;28;20028;-70
2023/10/04 04:46:08;;;;;;;3.05;0.80;;;10.30;99.90;;;;;;5037964;28;20060;-69
2023/10/04 04:48:36;;;;;;;1.73;0.80;;;10.20;99.90;;;;;;5037982;28;20029;-69
2023/10/04 04:51:14;;;;;;;4.18;0.90;;;10.20;99.90;;;;;;5036561;28;20028;-69
2023/10/04 04:53:44;;;;;;;1.52;0.77;;;10.10;99.90;;;;;;5038130;28;20036;-69
2023/10/04 04:56:14;;;;;;;3.20;0.60;;;10.20;99.90;;;;;;5040198;28;20071;-69
2023/10/04 04:58:47;;;;;;;2.17;0.75;;;10.10;99.90;;;;;;5037208;28;20042;-69
2023/10/04 05:01:12;;;;;;;2.90;0.77;;;10.10;99.90;;;;;;5036829;28;20013;-69
2023/10/04 05:03:42;;;;;;;1.92;0.80;;;10.20;99.90;;;;;;5036030;28;20066;-69
2023/10/04 05:06:20;;;;;;;2.63;0.93;;;10.20;99.90;;;;;;5036776;28;20107;-69
2023/10/04 05:08:46;;;;;;;3.03;0.80;;;10.20;99.90;;;;;;5037155;28;20017;-68
2023/10/04 05:11:12;;;;;;;2.85;0.80;;;10.20;99.90;;;;;;5037333;28;20037;-69
2023/10/04 05:13:39;;;;;;;2.40;0.90;;;10.20;99.90;;;;;;5037521;28;20075;-69
2023/10/04 05:16:05;;;;;;;2.35;0.73;;;10.20;99.90;;;;;;5037417;28;20039;-69
2023/10/04 05:18:31;;;;;;;3.25;0.90;;;10.20;99.90;;;;;;5037583;28;20024;-69
2023/10/04 05:20:58;;;;;;;2.42;0.70;;;10.20;99.90;;;;;;5037087;28;20021;-69
2023/10/04 05:23:25;;;;;;;2.97;0.75;;;10.20;99.90;;;;;;5036876;28;20466;-69
2023/10/04 05:25:52;;;;;;;2.72;0.98;;;10.20;99.90;;;;;;5034377;28;20492;-69
2023/10/04 05:28:18;;;;;;;3.20;0.80;;;10.10;99.90;;;;;;5036617;28;20115;-68
2023/10/04 05:30:45;;;;;;;2.70;0.90;;;10.10;99.90;;;;;;5037430;28;20021;-69
2023/10/04 05:33:15;;;;;;;2.88;1.05;;;10.10;99.90;;;;;;5037299;28;20032;-69
2023/10/04 05:35:43;;;;;;;4.55;0.77;;;10.10;99.90;;;;;;5037121;28;20072;-70
2023/10/04 05:38:11;;;;;;;2.20;0.85;;;10.10;99.90;;;;;;5036985;28;20394;-70
2023/10/04 05:40:43;;;;;;;2.80;1.00;;;10.10;99.90;;;;;;5036867;28;20056;-70
2023/10/04 05:43:09;;;;;;;2.30;0.73;;;10.10;99.90;;;;;;5036952;28;20021;-70
2023/10/04 05:45:36;;;;;;;1.92;0.80;;;10.10;99.90;;;;;;5036734;28;20033;-70
2023/10/04 05:48:04;;;;;;;2.60;0.90;;;10.10;99.90;;;;;;5036764;28;20397;-70
2023/10/04 05:50:32;;;;;;;3.22;0.70;;;10.10;99.90;;;;;;5036705;28;20539;-70
2023/10/04 05:53:05;;;;;;;2.63;1.00;;;10.10;99.90;;;;;;5036484;28;20026;-70
2023/10/04 05:55:35;;;;;;;2.30;0.93;;;10.10;99.90;;;;;;5038282;28;20105;-70
2023/10/04 05:58:03;;;;;;;3.20;1.08;;;10.10;99.90;;;;;;5039280;28;20041;-69
2023/10/04 06:00:33;;;;;;;2.47;0.80;;;10.10;99.90;;;;;;5036040;28;20017;-72
2023/10/04 06:03:04;;;;;;;3.50;1.08;;;10.00;99.90;;;;;;5041163;28;20018;-69
2023/10/04 06:05:31;;;;;;;2.90;0.98;;;10.10;99.90;;;;;;5033827;28;20474;-69
2023/10/04 06:07:57;;;;;;;2.72;0.88;;;10.10;99.90;;;;;;5037209;28;20459;-69
2023/10/04 06:10:24;;;;;;;2.72;0.85;;;10.10;99.90;;;;;;5040066;28;20079;-69
2023/10/04 06:12:54;;;;;;;3.67;0.70;;;10.10;99.90;;;;;;5039004;28;20127;-70
2023/10/04 06:15:21;;;;;;;2.28;0.90;;;10.10;99.90;;;;;;5039860;28;20052;-69
2023/10/04 06:17:47;;;;;;;2.97;0.93;;;10.20;99.90;;;;;;5040099;28;20037;-69
2023/10/04 06:20:40;;;;;;;2.97;0.90;;;10.10;99.90;;;;;;5037020;28;20026;-69
2023/10/04 06:23:06;;;;;;;2.35;0.65;;;10.20;99.90;;;;;;5040262;28;20115;-68
2023/10/04 06:25:39;;;;;;;4.28;0.93;;;10.20;99.90;;;;;;5039902;28;20056;-69
2023/10/04 06:28:05;;;;;;;3.88;0.77;;;10.20;99.90;;;;;;5041097;28;20123;-68
2023/10/04 06:30:33;;;;;;;3.90;0.90;;;10.20;99.90;;;;;;5038229;28;20029;-70
2023/10/04 06:33:00;;;;;;;1.80;0.75;;;10.20;99.90;;;;;;5038781;28;20858;-70
2023/10/04 06:35:27;;;;;;;3.55;0.90;;;10.20;99.90;;;;;;5040223;28;20482;-70
2023/10/04 06:38:05;;;;;;;5.95;1.25;;;10.30;99.90;;;;;;5018996;28;20064;-69
2023/10/04 06:40:31;;;;;;;3.10;1.00;;;10.30;99.90;;;;;;5029678;28;20029;-70
2023/10/04 06:42:59;;;;;;;3.30;0.80;;;10.30;99.90;;;;;;5039452;28;20025;-69
2023/10/04 06:45:26;;;;;;;2.50;0.80;;;10.40;99.90;;;;;;5038583;28;20517;-69
2023/10/04 06:47:54;;;;;;;2.25;0.77;;;10.40;99.90;;;;;;5039862;28;20025;-69
2023/10/04 06:50:35;;;;;;;2.10;0.90;;;10.40;99.90;;;;;;5040319;28;20021;-69
2023/10/04 06:53:02;;;;;;;3.05;0.93;;;10.40;99.90;;;;;;5039412;28;20052;-69
2023/10/04 06:55:33;;;;;;;2.42;0.90;;;10.40;99.90;;;;;;5041929;28;20022;-69
2023/10/04 06:57:59;;;;;;;4.60;1.10;;;10.40;99.90;;;;;;5038369;28;20113;-71
2023/10/04 07:00:30;;;;;;;3.67;1.15;;;10.50;99.90;;;;;;5039859;28;20032;-69
2023/10/04 07:02:58;;;;;;;3.35;1.10;;;10.50;99.90;;;;;;5038523;28;20566;-70
2023/10/04 07:05:29;;;;;;;2.42;1.02;;;10.60;99.90;;;;;;5039713;28;20429;-70
2023/10/04 07:07:58;;;;;;;2.75;0.90;;;10.60;99.90;;;;;;5039578;28;20532;-69
2023/10/04 07:10:26;;;;;;;3.58;1.00;;;10.70;99.90;;;;;;5038545;28;20033;-65
2023/10/04 07:12:53;;;;;;;3.60;1.20;;;10.70;99.90;;;;;;5038816;28;20474;-67
2023/10/04 07:15:24;;;;;;;4.60;1.20;;;10.80;99.90;;;;;;5038288;28;20032;-68
2023/10/04 07:17:50;;;;;;;5.03;1.40;;;10.90;99.90;;;;;;5037863;28;20033;-66
2023/10/04 07:20:18;;;;;;;4.00;1.42;;;10.90;99.90;;;;;;5038808;28;20025;-65
2023/10/04 07:22:58;;;;;;;2.72;1.08;;;11.00;99.90;;;;;;5039231;28;20550;-65
2023/10/04 07:25:28;;;;;;;3.55;1.33;;;11.00;99.90;;;;;;5039015;28;20428;-65
2023/10/04 07:28:03;;;;;;;4.78;1.35;;;11.00;99.90;;;;;;5039402;28;20025;-66
2023/10/04 07:30:36;;;;;;;3.30;1.10;;;11.00;99.90;;;;;;5036029;28;20128;-67
2023/10/04 07:33:02;;;;;;;4.88;1.48;;;10.90;99.90;;;;;;5039687;28;20036;-66
2023/10/04 07:35:28;;;;;;;2.13;0.90;;;10.90;99.90;;;;;;5039000;28;20025;-67
2023/10/04 07:37:56;;;;;;;2.50;0.95;;;10.90;99.90;;;;;;5037924;28;20061;-67
2023/10/04 07:40:23;;;;;;;5.65;1.20;;;10.90;99.90;;;;;;5037779;28;20437;-68
2023/10/04 07:42:52;;;;;;;4.63;1.17;;;10.90;99.90;;;;;;5031171;28;20504;-68
2023/10/04 07:45:19;;;;;;;3.08;1.05;;;10.90;99.90;;;;;;5039034;28;20021;-68
2023/10/04 07:47:45;;;;;;;3.65;1.10;;;11.00;99.90;;;;;;5039000;28;20041;-68
2023/10/04 07:50:15;;;;;;;3.92;1.02;;;11.10;99.90;;;;;;5024209;28;20105;-70
2023/10/04 07:52:42;;;;;;;4.50;1.40;;;11.20;99.90;;;;;;5043898;28;20040;-70
2023/10/04 07:55:18;;;;;;;4.95;1.42;;;11.30;99.90;;;;;;5040001;28;20036;-69
2023/10/04 07:57:49;;;;;;;3.15;1.30;;;11.40;99.90;;;;;;5036964;28;20502;-68
2023/10/04 08:00:16;;;;;;;5.75;1.20;;;11.60;99.90;;;;;;5039981;28;20532;-69
2023/10/04 08:02:46;;;;;;;6.15;1.60;;;11.80;99.90;;;;;;5037081;28;20091;-68
2023/10/04 08:05:23;;;;;;;4.43;1.50;;;12.00;99.90;;;;;;5038574;28;20022;-69
2023/10/04 08:07:50;;;;;;;5.15;1.40;;;12.20;99.90;;;;;;5040651;28;20032;-67
2023/10/04 08:10:16;;;;;;;5.15;1.50;;;12.30;99.90;;;;;;5038585;28;20033;-67
2023/10/04 08:12:43;;;;;;;3.38;1.50;;;12.50;99.90;;;;;;5037000;28;20487;-69
2023/10/04 08:15:13;;;;;;;7.20;2.25;;;12.70;99.90;;;;;;5037182;28;20033;-69
2023/10/04 08:17:43;;;;;;;4.68;1.85;;;12.80;99.90;;;;;;5037773;28;20029;-69
2023/10/04 08:20:12;;;;;;;5.70;2.08;;;12.90;99.90;;;;;;5035227;28;20151;-69
2023/10/04 08:22:38;;;;;;;6.70;1.95;;;13.00;99.90;;;;;;5037847;28;20017;-67
2023/10/04 08:25:05;;;;;;;5.93;1.80;;;13.10;99.90;;;;;;5036665;28;20021;-67
2023/10/04 08:27:31;;;;;;;9.23;2.05;;;13.20;99.90;;;;;;5038324;28;20048;-66
2023/10/04 08:29:56;;;;;;;6.22;2.10;;;13.40;99.90;;;;;;5038722;28;20021;-66
2023/10/04 08:32:23;;;;;;;4.45;1.73;;;13.50;99.90;;;;;;5036811;28;20045;-67
2023/10/04 08:34:49;;;;;;;7.57;2.15;;;13.50;99.90;;;;;;5037828;28;20398;-71
2023/10/04 08:37:16;;;;;;;4.47;1.65;;;13.50;99.90;;;;;;5037456;28;20021;-69
2023/10/04 08:39:41;;;;;;;8.00;2.00;;;13.60;99.90;;;;;;5037500;28;20128;-69
2023/10/04 08:42:07;;;;;;;5.82;1.80;;;13.60;99.90;;;;;;5037107;28;20080;-67
2023/10/04 08:44:33;;;;;;;4.70;1.58;;;13.60;99.90;;;;;;5035809;28;20512;-69
2023/10/04 08:47:06;;;;;;;5.20;1.60;;;13.60;99.90;;;;;;5037623;28;20021;-68
2023/10/04 08:49:55;;;;;;;4.07;1.27;;;13.60;99.90;;;;;;5036700;28;20017;-66
2023/10/04 08:52:35;;;;;;;4.32;1.33;;;13.80;99.90;;;;;;5037161;28;20493;-67
2023/10/04 08:55:13;;;;;;;5.63;1.50;;;13.80;99.90;;;;;;5038321;28;20068;-66
2023/10/04 08:57:40;;;;;;;5.82;1.60;;;14.00;99.90;;;;;;5036246;28;20132;-67
2023/10/04 09:00:13;;;;;;;4.60;1.48;;;13.90;99.90;;;;;;5037018;28;20044;-69
2023/10/04 09:02:42;;;;;;;4.07;1.35;;;13.90;99.90;;;;;;5035816;28;20022;-68
2023/10/04 09:05:10;;;;;;;5.60;1.92;;;13.90;99.90;;;;;;5035360;28;20029;-72
2023/10/04 09:07:35;;;;;;;5.15;1.52;;;14.00;99.90;;;;;;5037062;28;20478;-70
2023/10/04 09:10:04;;;;;;;4.35;1.38;;;14.00;99.90;;;;;;5037149;28;20100;-68
2023/10/04 09:12:30;;;;;;;7.15;1.85;;;13.90;99.90;;;;;;5036810;28;20115;-67
2023/10/04 09:14:55;;;;;;;12.43;1.65;;;13.90;99.90;;;;;;5036780;28;20564;-68
2023/10/04 09:17:24;;;;;;;6.13;1.30;;;13.80;99.90;;;;;;5037003;28;20489;-68
2023/10/04 09:19:49;;;;;;;4.32;1.40;;;13.80;99.90;;;;;;5035785;28;20020;-68
2023/10/04 09:22:20;;;;;;;4.45;1.20;;;13.80;99.90;;;;;;5047503;28;20522;-69
2023/10/04 09:24:54;;;;;;;4.00;0.98;;;13.90;99.90;;;;;;5036802;28;20022;-66
2023/10/04 09:27:21;;;;;;;2.30;1.00;;;14.00;99.90;;;;;;5035260;28;20029;-68
2023/10/04 09:29:48;;;;;;;4.10;1.05;;;14.00;99.90;;;;;;5036637;28;20029;-70
2023/10/04 09:32:33;;;;;;;5.35;0.90;;;14.10;99.90;;;;;;5036686;28;20105;-70
2023/10/04 09:34:59;;;;;;;4.00;0.90;;;14.20;99.90;;;;;;5034694;28;20021;-68
2023/10/04 09:37:24;;;;;;;4.18;1.05;;;14.20;99.90;;;;;;5035432;28;20032;-66
2023/10/04 09:40:05;;;;;;;4.70;0.90;;;14.30;99.90;;;;;;5035027;28;20056;-68
2023/10/04 09:42:43;;;;;;;5.00;1.13;;;14.30;99.90;;;;;;5036200;28;20025;-68
2023/10/04 09:45:09;;;;;;;5.63;1.35;;;14.40;99.90;;;;;;5035046;28;20073;-67
2023/10/04 09:47:38;;;;;;;7.75;1.40;;;14.50;99.90;;;;;;5033893;28;20394;-65
2023/10/04 09:50:12;;;;;;;6.68;1.10;;;14.50;99.90;;;;;;5035208;28;20017;-66
2023/10/04 09:52:38;;;;;;;4.60;0.93;;;14.60;99.90;;;;;;5034287;28;20108;-66
2023/10/04 09:55:05;;;;;;;6.15;1.20;;;14.60;99.90;;;;;;5039315;28;20021;-67
2023/10/04 09:57:35;;;;;;;3.45;1.00;;;14.60;99.90;;;;;;5036089;28;20109;-67
2023/10/04 10:00:05;;;;;;;4.25;1.10;;;14.70;99.90;;;;;;5036266;28;20023;-67
2023/10/04 10:02:36;;;;;;;9.20;1.17;;;14.70;99.90;;;;;;5036329;28;20100;-67
2023/10/04 10:05:05;;;;;;;7.30;1.10;;;14.80;99.90;;;;;;5034942;28;20018;-67
2023/10/04 10:07:34;;;;;;;3.95;0.85;;;14.80;99.90;;;;;;5036174;28;20025;-67
2023/10/04 10:10:12;;;;;;;7.53;1.10;;;14.90;99.90;;;;;;5034416;28;20112;-67
2023/10/04 10:12:39;;;;;;;5.13;1.17;;;15.00;99.90;;;;;;5035043;28;21537;-67
2023/10/04 10:15:07;;;;;;;5.60;1.10;;;15.00;99.90;;;;;;5033463;28;20051;-67
2023/10/04 10:17:34;;;;;;;4.80;1.30;;;15.10;99.90;;;;;;5035652;28;20091;-67
2023/10/04 10:20:01;;;;;;;4.55;1.40;;;15.10;99.90;;;;;;5034385;28;20462;-66
2023/10/04 10:22:27;;;;;;;4.70;1.25;;;15.20;99.90;;;;;;5035777;28;20022;-67
2023/10/04 10:24:55;;;;;;;3.95;1.35;;;15.20;99.90;;;;;;5024282;28;20109;-66
2023/10/04 10:27:28;;;;;;;5.18;1.48;;;15.20;99.90;;;;;;5038285;28;20029;-68
2023/10/04 10:29:59;;;;;;;4.87;1.13;;;15.30;99.90;;;;;;5042755;28;20450;-67
2023/10/04 10:32:25;;;;;;;7.07;1.65;;;15.40;99.90;;;;;;5044476;28;20392;-67
2023/10/04 10:35:12;;;;;;;6.47;1.42;;;15.40;99.90;;;;;;5045759;28;20081;-69
2023/10/04 10:37:38;;;;;;;4.57;1.20;;;15.50;99.90;;;;;;5042276;28;20397;-67
2023/10/04 10:40:13;;;;;;;4.15;1.20;;;15.50;99.90;;;;;;5046849;28;20022;-68
2023/10/04 10:43:07;;;;;;;3.35;0.98;;;15.60;99.90;;;;;;5037173;28;20021;-67
2023/10/04 10:45:33;;;;;;;4.43;0.90;;;15.60;99.90;;;;;;5035945;28;20113;-68
2023/10/04 10:48:01;;;;;;;3.13;0.93;;;15.70;99.90;;;;;;5034401;28;20088;-67
2023/10/04 10:50:33;;;;;;;2.85;0.73;;;15.70;99.90;;;;;;5035983;28;20025;-67
2023/10/04 10:53:05;;;;;;;4.27;0.97;;;15.80;99.90;;;;;;5036528;28;20029;-67
2023/10/04 10:55:32;;;;;;;10.50;1.48;;;15.80;99.90;;;;;;5042878;28;20025;-68
2023/10/04 10:57:58;;;;;;;4.05;0.90;;;15.80;99.90;;;;;;5038899;28;20057;-67
2023/10/04 11:00:26;;;;;;;4.05;0.85;;;15.80;99.90;;;;;;5037921;28;20037;-68
2023/10/04 11:02:55;;;;;;;3.78;1.15;;;15.80;99.70;;;;;;5039380;28;20017;-67
2023/10/04 11:05:21;;;;;;;4.75;1.60;;;15.80;99.60;;;;;;5036866;28;20013;-67
2023/10/04 11:07:49;;;;;;;2.78;0.80;;;15.90;99.00;;;;;;5037672;28;20159;-67
2023/10/04 11:10:16;;;;;;;3.72;1.02;;;16.00;98.00;;;;;;5038816;28;20025;-67
2023/10/04 11:12:46;;;;;;;3.50;1.00;;;16.00;96.50;;;;;;5038826;28;20022;-67
2023/10/04 11:15:12;;;;;;;4.72;1.00;;;16.10;97.60;;;;;;5038710;28;20018;-68
2023/10/04 11:17:39;;;;;;;3.25;1.08;;;16.20;97.10;;;;;;5037328;28;20034;-68
2023/10/04 11:20:09;;;;;;;2.97;1.00;;;16.20;95.00;;;;;;5038784;28;20068;-68
2023/10/04 11:22:37;;;;;;;3.20;0.80;;;16.30;96.30;;;;;;5038609;28;20560;-67
2023/10/04 11:25:06;;;;;;;6.80;1.10;;;16.40;95.50;;;;;;5038486;28;21464;-67
2023/10/04 11:27:33;;;;;;;3.72;0.75;;;16.40;96.10;;;;;;5039334;28;20474;-67
2023/10/04 11:29:59;;;;;;;4.18;0.95;;;16.40;96.30;;;;;;5038338;28;20032;-67
2023/10/04 11:32:28;;;;;;;3.28;0.90;;;16.40;95.50;;;;;;5041051;28;20109;-65
2023/10/04 11:34:56;;;;;;;3.22;0.80;;;16.50;95.40;;;;;;5046980;28;20025;-66
2023/10/04 11:37:28;;;;;;;4.05;0.90;;;16.50;95.80;;;;;;5045507;28;20021;-66
2023/10/04 11:39:54;;;;;;;4.85;0.68;;;16.50;95.60;;;;;;5045676;28;20466;-67
2023/10/04 11:42:23;;;;;;;5.15;0.82;;;16.50;95.10;;;;;;5048621;28;20029;-67
2023/10/04 11:44:49;;;;;;;5.72;1.25;;;16.50;94.70;;;;;;5044360;28;20018;-67
2023/10/04 11:47:27;;;;;;;3.80;0.82;;;16.60;94.30;;;;;;5046634;28;20049;-67
2023/10/04 11:49:59;;;;;;;2.53;0.70;;;16.60;95.50;;;;;;5044877;28;20022;-67
2023/10/04 11:52:32;;;;;;;3.30;0.70;;;16.70;95.10;;;;;;5045279;28;20021;-67
2023/10/04 11:54:58;;;;;;;3.50;0.77;;;16.70;95.30;;;;;;5045807;28;20450;-67
2023/10/04 11:57:26;;;;;;;2.42;0.80;;;16.80;94.00;;;;;;5045761;28;20155;-68
2023/10/04 11:59:52;;;;;;;2.90;0.90;;;16.80;93.30;;;;;;5044103;28;20017;-68
2023/10/04 12:02:22;;;;;;;5.63;1.00;;;16.80;92.10;;;;;;5048303;28;20028;-67
2023/10/04 12:04:47;;;;;;;2.88;0.60;;;16.80;92.90;;;;;;5047543;28;20017;-67
2023/10/04 12:07:13;;;;;;;5.00;0.80;;;16.80;92.60;;;;;;5046620;28;20029;-66
2023/10/04 12:09:38;;;;;;;1.63;0.60;;;16.90;92.30;;;;;;5046398;28;20027;-67
2023/10/04 12:12:07;;;;;;;4.20;0.73;;;16.90;92.80;;;;;;5046238;28;20104;-66
2023/10/04 12:14:34;;;;;;;3.70;0.90;;;16.90;91.50;;;;;;5044570;28;20025;-66
2023/10/04 12:17:04;;;;;;;2.55;0.90;;;16.90;91.50;;;;;;5047034;28;20070;-66
2023/10/04 12:19:34;;;;;;;2.72;0.63;;;17.00;91.20;;;;;;5047611;28;20100;-66
2023/10/04 12:22:08;;;;;;;2.75;0.95;;;17.00;91.10;;;;;;5046428;28;20111;-66
2023/10/04 12:24:41;;;;;;;3.72;0.85;;;17.00;90.80;;;;;;5044901;28;20010;-66
2023/10/04 12:27:08;;;;;;;2.53;0.70;;;17.10;91.60;;;;;;5045971;28;21473;-65
2023/10/04 12:29:36;;;;;;;3.63;0.80;;;17.10;90.60;;;;;;5043389;28;20428;-66
2023/10/04 12:32:01;;;;;;;2.70;0.80;;;17.20;90.30;;;;;;5045452;28;20049;-67
2023/10/04 12:34:29;;;;;;;4.43;0.80;;;17.20;91.00;;;;;;5047204;28;20572;-65
2023/10/04 12:36:55;;;;;;;3.03;0.82;;;17.20;90.20;;;;;;5044035;28;20049;-66
2023/10/04 12:39:21;;;;;;;3.03;0.82;;;17.30;89.80;;;;;;5047294;28;20107;-67
2023/10/04 12:41:50;;;;;;;2.10;0.70;;;17.40;87.40;;;;;;5047269;28;20025;-66
2023/10/04 12:44:19;;;;;;;2.05;0.70;;;17.50;88.30;;;;;;5045279;28;20018;-66
2023/10/04 12:46:49;;;;;;;1.92;0.65;;;17.50;85.80;;;;;;5044626;28;20033;-67
2023/10/04 12:49:15;;;;;;;2.17;0.70;;;17.50;82.20;;;;;;5040270;28;20113;-65
2023/10/04 12:51:41;;;;;;;1.85;0.70;;;17.60;84.20;;;;;;5040346;28;20037;-71
2023/10/04 12:54:11;;;;;;;1.75;0.60;;;17.60;83.30;;;;;;5042481;28;20141;-68
2023/10/04 12:56:38;;;;;;;3.08;0.60;;;17.60;82.60;;;;;;5044497;28;20025;-69
2023/10/04 12:59:06;;;;;;;2.80;0.60;;;17.60;78.80;;;;;;5045773;28;20045;-69
2023/10/04 13:01:33;;;;;;;2.70;0.63;;;17.70;79.90;;;;;;5045450;28;20078;-69